Terminal Aerodrome Forecast
Issued by NWS

Home | Current Version | Previous Version | Text Only | Print | Product List | Glossary On
Versions: 1 2 3 4 5 6 7 8 9 10 11 12 13 14 15 16 17 18 19 20 21 22 23 24 25
000
FTUS43 KDLH 270540
TAFHIB
TAF
KHIB 270540Z 2706/2806 00000KT P6SM BKN080
     FM271200 00000KT P6SM -SN SCT025 OVC050
     FM272000 11003KT P6SM BKN050 OVC100
     FM280500 VRB03KT 4SM -SN OVC025=

USA.gov is the U.S. government's official web portal to all federal, state and local government web resources and services.